sensor_id;sensor_type;location;lat;lon;timestamp;P1;durP1;ratioP1;P2;durP2;ratioP2
29500;SDS011;16450;50.288;10.966;2022-08-02T00:02:27;2.37;;;1.40;;
29500;SDS011;16450;50.288;10.966;2022-08-02T00:05:28;1.50;;;1.40;;
29500;SDS011;16450;50.288;10.966;2022-08-02T00:08:29;2.20;;;1.23;;
29500;SDS011;16450;50.288;10.966;2022-08-02T00:11:29;1.60;;;1.47;;
29500;SDS011;16450;50.288;10.966;2022-08-02T00:14:30;3.07;;;1.40;;
29500;SDS011;16450;50.288;10.966;2022-08-02T00:17:31;1.50;;;1.40;;
29500;SDS011;16450;50.288;10.966;2022-08-02T00:20:31;1.60;;;1.50;;
29500;SDS011;16450;50.288;10.966;2022-08-02T00:23:32;1.70;;;1.33;;
29500;SDS011;16450;50.288;10.966;2022-08-02T00:26:32;1.60;;;1.50;;
29500;SDS011;16450;50.288;10.966;2022-08-02T00:29:33;1.60;;;1.50;;
29500;SDS011;16450;50.288;10.966;2022-08-02T00:32:35;2.00;;;1.50;;
29500;SDS011;16450;50.288;10.966;2022-08-02T00:35:36;1.37;;;1.27;;
29500;SDS011;16450;50.288;10.966;2022-08-02T00:38:37;1.90;;;1.60;;
29500;SDS011;16450;50.288;10.966;2022-08-02T00:41:47;2.93;;;1.60;;
29500;SDS011;16450;50.288;10.966;2022-08-02T00:44:49;2.03;;;1.70;;
29500;SDS011;16450;50.288;10.966;2022-08-02T00:47:49;2.43;;;1.80;;
29500;SDS011;16450;50.288;10.966;2022-08-02T00:50:50;1.73;;;1.50;;
29500;SDS011;16450;50.288;10.966;2022-08-02T00:53:51;1.87;;;1.50;;
29500;SDS011;16450;50.288;10.966;2022-08-02T00:56:51;1.67;;;1.57;;
29500;SDS011;16450;50.288;10.966;2022-08-02T00:59:52;1.57;;;1.47;;
29500;SDS011;16450;50.288;10.966;2022-08-02T01:02:53;1.60;;;1.50;;
29500;SDS011;16450;50.288;10.966;2022-08-02T01:05:54;1.80;;;1.70;;
29500;SDS011;16450;50.288;10.966;2022-08-02T01:08:54;2.20;;;1.80;;
29500;SDS011;16450;50.288;10.966;2022-08-02T01:11:55;2.87;;;1.90;;
29500;SDS011;16450;50.288;10.966;2022-08-02T01:14:56;3.00;;;1.90;;
29500;SDS011;16450;50.288;10.966;2022-08-02T01:18:14;2.90;;;1.70;;
29500;SDS011;16450;50.288;10.966;2022-08-02T01:24:54;2.73;;;1.83;;
29500;SDS011;16450;50.288;10.966;2022-08-02T01:28:18;2.20;;;2.00;;
29500;SDS011;16450;50.288;10.966;2022-08-02T01:34:53;2.00;;;1.83;;
29500;SDS011;16450;50.288;10.966;2022-08-02T01:37:59;1.90;;;1.80;;
29500;SDS011;16450;50.288;10.966;2022-08-02T01:41:28;2.63;;;1.97;;
29500;SDS011;16450;50.288;10.966;2022-08-02T01:44:32;2.60;;;1.90;;
29500;SDS011;16450;50.288;10.966;2022-08-02T01:47:35;2.63;;;2.33;;
29500;SDS011;16450;50.288;10.966;2022-08-02T01:50:39;2.63;;;2.00;;
29500;SDS011;16450;50.288;10.966;2022-08-02T01:53:41;2.63;;;2.00;;
29500;SDS011;16450;50.288;10.966;2022-08-02T01:56:45;2.00;;;1.87;;
29500;SDS011;16450;50.288;10.966;2022-08-02T01:59:49;3.53;;;1.90;;
29500;SDS011;16450;50.288;10.966;2022-08-02T02:02:51;2.77;;;1.90;;
29500;SDS011;16450;50.288;10.966;2022-08-02T02:05:54;2.20;;;1.77;;
29500;SDS011;16450;50.288;10.966;2022-08-02T02:08:56;2.53;;;1.93;;
29500;SDS011;16450;50.288;10.966;2022-08-02T02:11:59;2.43;;;1.70;;
29500;SDS011;16450;50.288;10.966;2022-08-02T02:15:01;2.40;;;1.70;;
29500;SDS011;16450;50.288;10.966;2022-08-02T02:18:02;1.60;;;1.50;;
29500;SDS011;16450;50.288;10.966;2022-08-02T02:21:05;2.00;;;1.80;;
29500;SDS011;16450;50.288;10.966;2022-08-02T02:24:06;2.10;;;1.90;;
29500;SDS011;16450;50.288;10.966;2022-08-02T02:27:07;2.00;;;1.83;;
29500;SDS011;16450;50.288;10.966;2022-08-02T02:30:11;2.97;;;1.90;;
29500;SDS011;16450;50.288;10.966;2022-08-02T02:33:12;1.90;;;1.80;;
29500;SDS011;16450;50.288;10.966;2022-08-02T02:36:16;1.70;;;1.60;;
29500;SDS011;16450;50.288;10.966;2022-08-02T02:39:20;1.80;;;1.70;;
29500;SDS011;16450;50.288;10.966;2022-08-02T02:42:30;1.63;;;1.53;;
29500;SDS011;16450;50.288;10.966;2022-08-02T02:45:32;2.20;;;1.90;;
29500;SDS011;16450;50.288;10.966;2022-08-02T02:48:35;2.27;;;1.90;;
29500;SDS011;16450;50.288;10.966;2022-08-02T02:51:39;2.10;;;1.90;;
29500;SDS011;16450;50.288;10.966;2022-08-02T02:54:43;2.20;;;1.80;;
29500;SDS011;16450;50.288;10.966;2022-08-02T02:57:45;2.17;;;1.97;;
29500;SDS011;16450;50.288;10.966;2022-08-02T03:00:47;4.60;;;1.87;;
29500;SDS011;16450;50.288;10.966;2022-08-02T03:04:08;3.53;;;1.87;;
29500;SDS011;16450;50.288;10.966;2022-08-02T03:07:10;2.07;;;1.87;;
29500;SDS011;16450;50.288;10.966;2022-08-02T03:10:11;2.27;;;1.87;;
29500;SDS011;16450;50.288;10.966;2022-08-02T03:13:11;2.23;;;2.00;;
29500;SDS011;16450;50.288;10.966;2022-08-02T03:16:13;2.43;;;2.00;;
29500;SDS011;16450;50.288;10.966;2022-08-02T03:19:14;2.57;;;1.90;;
29500;SDS011;16450;50.288;10.966;2022-08-02T03:22:15;2.37;;;2.07;;
29500;SDS011;16450;50.288;10.966;2022-08-02T03:25:16;2.87;;;2.00;;
29500;SDS011;16450;50.288;10.966;2022-08-02T03:28:17;2.20;;;2.00;;
29500;SDS011;16450;50.288;10.966;2022-08-02T03:31:17;2.27;;;2.07;;
29500;SDS011;16450;50.288;10.966;2022-08-02T03:34:18;2.40;;;2.20;;
29500;SDS011;16450;50.288;10.966;2022-08-02T03:37:20;2.27;;;2.10;;
29500;SDS011;16450;50.288;10.966;2022-08-02T03:40:21;2.93;;;2.27;;
29500;SDS011;16450;50.288;10.966;2022-08-02T03:43:24;3.03;;;2.13;;
29500;SDS011;16450;50.288;10.966;2022-08-02T03:46:25;2.60;;;2.30;;
29500;SDS011;16450;50.288;10.966;2022-08-02T03:49:26;2.90;;;2.17;;
29500;SDS011;16450;50.288;10.966;2022-08-02T03:52:28;2.60;;;1.80;;
29500;SDS011;16450;50.288;10.966;2022-08-02T03:55:30;3.20;;;2.17;;
29500;SDS011;16450;50.288;10.966;2022-08-02T03:58:32;2.43;;;2.20;;
29500;SDS011;16450;50.288;10.966;2022-08-02T04:01:33;2.13;;;1.90;;
29500;SDS011;16450;50.288;10.966;2022-08-02T04:04:33;2.97;;;2.10;;
29500;SDS011;16450;50.288;10.966;2022-08-02T04:07:34;4.37;;;2.30;;
29500;SDS011;16450;50.288;10.966;2022-08-02T04:10:34;3.20;;;2.10;;
29500;SDS011;16450;50.288;10.966;2022-08-02T04:13:56;2.40;;;2.20;;
29500;SDS011;16450;50.288;10.966;2022-08-02T04:17:03;2.97;;;2.30;;
29500;SDS011;16450;50.288;10.966;2022-08-02T04:20:07;2.83;;;2.47;;
29500;SDS011;16450;50.288;10.966;2022-08-02T04:23:22;2.63;;;2.30;;
29500;SDS011;16450;50.288;10.966;2022-08-02T04:26:24;3.00;;;2.70;;
29500;SDS011;16450;50.288;10.966;2022-08-02T04:29:25;4.70;;;2.73;;
29500;SDS011;16450;50.288;10.966;2022-08-02T04:32:27;3.07;;;2.77;;
29500;SDS011;16450;50.288;10.966;2022-08-02T04:35:28;2.70;;;2.07;;
29500;SDS011;16450;50.288;10.966;2022-08-02T04:38:28;3.20;;;2.53;;
29500;SDS011;16450;50.288;10.966;2022-08-02T04:41:36;3.87;;;2.40;;
29500;SDS011;16450;50.288;10.966;2022-08-02T04:44:37;3.30;;;2.17;;
29500;SDS011;16450;50.288;10.966;2022-08-02T04:47:38;2.50;;;2.30;;
29500;SDS011;16450;50.288;10.966;2022-08-02T04:50:39;2.57;;;2.37;;
29500;SDS011;16450;50.288;10.966;2022-08-02T04:53:39;2.83;;;2.53;;
29500;SDS011;16450;50.288;10.966;2022-08-02T04:56:40;3.00;;;2.80;;
29500;SDS011;16450;50.288;10.966;2022-08-02T04:59:41;3.70;;;2.73;;
29500;SDS011;16450;50.288;10.966;2022-08-02T05:02:41;3.03;;;2.73;;
29500;SDS011;16450;50.288;10.966;2022-08-02T05:05:42;3.07;;;2.63;;
29500;SDS011;16450;50.288;10.966;2022-08-02T05:08:43;3.67;;;2.67;;
29500;SDS011;16450;50.288;10.966;2022-08-02T05:11:43;3.43;;;3.10;;
29500;SDS011;16450;50.288;10.966;2022-08-02T05:14:44;3.50;;;3.00;;
29500;SDS011;16450;50.288;10.966;2022-08-02T05:17:45;5.13;;;3.20;;
29500;SDS011;16450;50.288;10.966;2022-08-02T05:20:46;3.07;;;2.77;;
29500;SDS011;16450;50.288;10.966;2022-08-02T05:23:47;3.67;;;2.80;;
29500;SDS011;16450;50.288;10.966;2022-08-02T05:26:47;3.33;;;3.03;;
29500;SDS011;16450;50.288;10.966;2022-08-02T05:29:49;5.57;;;3.30;;
29500;SDS011;16450;50.288;10.966;2022-08-02T05:32:50;5.63;;;2.93;;
29500;SDS011;16450;50.288;10.966;2022-08-02T05:35:51;5.07;;;2.87;;
29500;SDS011;16450;50.288;10.966;2022-08-02T05:38:52;4.27;;;3.03;;
29500;SDS011;16450;50.288;10.966;2022-08-02T05:41:53;6.03;;;3.17;;
29500;SDS011;16450;50.288;10.966;2022-08-02T05:44:53;3.40;;;2.92;;
29500;SDS011;16450;50.288;10.966;2022-08-02T05:47:54;2.80;;;2.60;;
29500;SDS011;16450;50.288;10.966;2022-08-02T05:50:58;4.72;;;2.58;;
29500;SDS011;16450;50.288;10.966;2022-08-02T05:54:18;3.28;;;2.65;;
29500;SDS011;16450;50.288;10.966;2022-08-02T05:57:45;5.97;;;2.60;;
29500;SDS011;16450;50.288;10.966;2022-08-02T06:00:54;4.13;;;2.88;;
29500;SDS011;16450;50.288;10.966;2022-08-02T06:03:59;4.03;;;3.35;;
29500;SDS011;16450;50.288;10.966;2022-08-02T06:07:00;5.63;;;3.05;;
29500;SDS011;16450;50.288;10.966;2022-08-02T06:10:05;3.42;;;2.70;;
29500;SDS011;16450;50.288;10.966;2022-08-02T06:13:11;2.83;;;2.60;;
29500;SDS011;16450;50.288;10.966;2022-08-02T06:16:13;4.25;;;2.92;;
29500;SDS011;16450;50.288;10.966;2022-08-02T06:19:14;3.17;;;2.85;;
29500;SDS011;16450;50.288;10.966;2022-08-02T06:22:17;2.90;;;2.55;;
29500;SDS011;16450;50.288;10.966;2022-08-02T06:25:18;5.28;;;2.30;;
29500;SDS011;16450;50.288;10.966;2022-08-02T06:28:20;3.67;;;2.80;;
29500;SDS011;16450;50.288;10.966;2022-08-02T06:31:22;2.95;;;2.47;;
29500;SDS011;16450;50.288;10.966;2022-08-02T06:34:23;3.78;;;3.15;;
29500;SDS011;16450;50.288;10.966;2022-08-02T06:37:25;3.95;;;2.85;;
29500;SDS011;16450;50.288;10.966;2022-08-02T06:40:48;2.63;;;2.42;;
29500;SDS011;16450;50.288;10.966;2022-08-02T06:43:58;3.42;;;2.72;;
29500;SDS011;16450;50.288;10.966;2022-08-02T06:47:01;3.45;;;2.85;;
29500;SDS011;16450;50.288;10.966;2022-08-02T06:50:02;3.60;;;2.97;;
29500;SDS011;16450;50.288;10.966;2022-08-02T06:53:04;2.83;;;2.60;;
29500;SDS011;16450;50.288;10.966;2022-08-02T06:56:05;2.65;;;2.45;;
29500;SDS011;16450;50.288;10.966;2022-08-02T06:59:05;3.08;;;2.40;;
29500;SDS011;16450;50.288;10.966;2022-08-02T07:02:06;2.20;;;2.03;;
29500;SDS011;16450;50.288;10.966;2022-08-02T07:05:08;2.20;;;2.00;;
29500;SDS011;16450;50.288;10.966;2022-08-02T07:08:09;2.53;;;1.95;;
29500;SDS011;16450;50.288;10.966;2022-08-02T07:11:09;2.17;;;1.98;;
29500;SDS011;16450;50.288;10.966;2022-08-02T07:14:10;2.80;;;1.98;;
29500;SDS011;16450;50.288;10.966;2022-08-02T07:17:11;2.83;;;1.80;;
29500;SDS011;16450;50.288;10.966;2022-08-02T07:20:12;3.05;;;1.70;;
29500;SDS011;16450;50.288;10.966;2022-08-02T07:23:13;2.00;;;1.67;;
29500;SDS011;16450;50.288;10.966;2022-08-02T07:26:14;1.70;;;1.60;;
29500;SDS011;16450;50.288;10.966;2022-08-02T07:29:15;3.22;;;1.90;;
29500;SDS011;16450;50.288;10.966;2022-08-02T07:32:16;2.13;;;1.40;;
29500;SDS011;16450;50.288;10.966;2022-08-02T07:35:18;2.00;;;1.80;;
29500;SDS011;16450;50.288;10.966;2022-08-02T07:38:20;3.85;;;1.80;;
29500;SDS011;16450;50.288;10.966;2022-08-02T07:41:23;1.60;;;1.50;;
29500;SDS011;16450;50.288;10.966;2022-08-02T07:44:24;4.80;;;1.50;;
29500;SDS011;16450;50.288;10.966;2022-08-02T07:47:25;1.92;;;1.60;;
29500;SDS011;16450;50.288;10.966;2022-08-02T07:50:26;2.17;;;1.70;;
29500;SDS011;16450;50.288;10.966;2022-08-02T07:53:27;1.83;;;1.48;;
29500;SDS011;16450;50.288;10.966;2022-08-02T07:56:28;1.42;;;1.33;;
29500;SDS011;16450;50.288;10.966;2022-08-02T07:59:28;2.35;;;1.50;;
29500;SDS011;16450;50.288;10.966;2022-08-02T08:02:29;2.63;;;1.85;;
29500;SDS011;16450;50.288;10.966;2022-08-02T08:05:30;1.58;;;1.48;;
29500;SDS011;16450;50.288;10.966;2022-08-02T08:08:30;2.53;;;1.45;;
29500;SDS011;16450;50.288;10.966;2022-08-02T08:11:32;2.83;;;1.48;;
29500;SDS011;16450;50.288;10.966;2022-08-02T08:14:33;1.75;;;1.60;;
29500;SDS011;16450;50.288;10.966;2022-08-02T08:17:35;1.70;;;1.60;;
29500;SDS011;16450;50.288;10.966;2022-08-02T08:20:36;1.38;;;1.20;;
29500;SDS011;16450;50.288;10.966;2022-08-02T08:23:36;1.85;;;1.20;;
29500;SDS011;16450;50.288;10.966;2022-08-02T08:26:37;2.17;;;1.30;;
29500;SDS011;16450;50.288;10.966;2022-08-02T08:29:39;1.48;;;1.35;;
29500;SDS011;16450;50.288;10.966;2022-08-02T08:32:43;1.63;;;1.23;;
29500;SDS011;16450;50.288;10.966;2022-08-02T08:35:44;1.40;;;1.30;;
29500;SDS011;16450;50.288;10.966;2022-08-02T08:38:45;2.20;;;1.40;;
29500;SDS011;16450;50.288;10.966;2022-08-02T08:41:45;1.85;;;1.25;;
29500;SDS011;16450;50.288;10.966;2022-08-02T08:44:46;1.15;;;1.00;;
29500;SDS011;16450;50.288;10.966;2022-08-02T08:47:50;1.20;;;1.10;;
29500;SDS011;16450;50.288;10.966;2022-08-02T08:50:55;2.08;;;1.30;;
29500;SDS011;16450;50.288;10.966;2022-08-02T08:54:00;3.13;;;1.02;;
29500;SDS011;16450;50.288;10.966;2022-08-02T08:57:03;1.25;;;1.17;;
29500;SDS011;16450;50.288;10.966;2022-08-02T09:00:04;2.95;;;1.02;;
29500;SDS011;16450;50.288;10.966;2022-08-02T09:03:06;1.35;;;1.05;;
29500;SDS011;16450;50.288;10.966;2022-08-02T09:06:07;1.15;;;1.10;;
29500;SDS011;16450;50.288;10.966;2022-08-02T09:09:08;1.52;;;0.80;;
29500;SDS011;16450;50.288;10.966;2022-08-02T09:12:15;1.20;;;1.10;;
29500;SDS011;16450;50.288;10.966;2022-08-02T09:15:20;0.90;;;0.90;;
29500;SDS011;16450;50.288;10.966;2022-08-02T09:18:28;1.15;;;1.05;;
29500;SDS011;16450;50.288;10.966;2022-08-02T09:21:36;2.40;;;1.48;;
29500;SDS011;16450;50.288;10.966;2022-08-02T09:24:47;2.78;;;1.35;;
29500;SDS011;16450;50.288;10.966;2022-08-02T09:27:50;1.42;;;1.33;;
29500;SDS011;16450;50.288;10.966;2022-08-02T09:30:51;1.35;;;1.15;;
29500;SDS011;16450;50.288;10.966;2022-08-02T09:33:55;1.75;;;1.15;;
29500;SDS011;16450;50.288;10.966;2022-08-02T09:36:57;1.52;;;1.27;;
29500;SDS011;16450;50.288;10.966;2022-08-02T09:39:58;1.50;;;1.40;;
29500;SDS011;16450;50.288;10.966;2022-08-02T09:42:59;1.90;;;1.60;;
29500;SDS011;16450;50.288;10.966;2022-08-02T09:49:11;2.60;;;1.20;;
29500;SDS011;16450;50.288;10.966;2022-08-02T09:52:14;1.30;;;1.20;;
29500;SDS011;16450;50.288;10.966;2022-08-02T09:55:14;1.40;;;1.30;;
29500;SDS011;16450;50.288;10.966;2022-08-02T09:58:19;3.28;;;1.40;;
29500;SDS011;16450;50.288;10.966;2022-08-02T10:01:20;1.40;;;1.30;;
29500;SDS011;16450;50.288;10.966;2022-08-02T10:04:30;1.48;;;1.33;;
29500;SDS011;16450;50.288;10.966;2022-08-02T10:07:31;3.58;;;1.48;;
29500;SDS011;16450;50.288;10.966;2022-08-02T10:10:32;1.50;;;1.30;;
29500;SDS011;16450;50.288;10.966;2022-08-02T10:13:33;1.48;;;1.38;;
29500;SDS011;16450;50.288;10.966;2022-08-02T10:16:36;2.15;;;1.30;;
29500;SDS011;16450;50.288;10.966;2022-08-02T10:19:38;2.72;;;1.48;;
29500;SDS011;16450;50.288;10.966;2022-08-02T10:22:38;1.60;;;1.50;;
29500;SDS011;16450;50.288;10.966;2022-08-02T10:25:40;1.33;;;1.23;;
29500;SDS011;16450;50.288;10.966;2022-08-02T10:28:47;2.47;;;1.35;;
29500;SDS011;16450;50.288;10.966;2022-08-02T10:32:00;2.33;;;1.27;;
29500;SDS011;16450;50.288;10.966;2022-08-02T10:35:08;2.38;;;1.33;;
29500;SDS011;16450;50.288;10.966;2022-08-02T10:38:12;1.50;;;1.40;;
29500;SDS011;16450;50.288;10.966;2022-08-02T10:41:38;1.70;;;1.60;;
29500;SDS011;16450;50.288;10.966;2022-08-02T10:44:45;1.70;;;1.17;;
29500;SDS011;16450;50.288;10.966;2022-08-02T10:47:58;1.70;;;1.48;;
29500;SDS011;16450;50.288;10.966;2022-08-02T10:51:06;1.75;;;1.30;;
29500;SDS011;16450;50.288;10.966;2022-08-02T10:54:07;1.40;;;1.30;;
29500;SDS011;16450;50.288;10.966;2022-08-02T10:57:18;1.50;;;1.23;;
29500;SDS011;16450;50.288;10.966;2022-08-02T11:06:27;1.50;;;1.20;;
29500;SDS011;16450;50.288;10.966;2022-08-02T11:09:28;2.15;;;1.27;;
29500;SDS011;16450;50.288;10.966;2022-08-02T11:12:31;1.33;;;1.23;;
29500;SDS011;16450;50.288;10.966;2022-08-02T11:19:04;1.50;;;1.40;;
29500;SDS011;16450;50.288;10.966;2022-08-02T11:22:06;1.48;;;1.38;;
29500;SDS011;16450;50.288;10.966;2022-08-02T11:28:21;1.48;;;1.20;;
29500;SDS011;16450;50.288;10.966;2022-08-02T11:31:22;1.63;;;1.20;;
29500;SDS011;16450;50.288;10.966;2022-08-02T11:34:24;1.58;;;1.10;;
29500;SDS011;16450;50.288;10.966;2022-08-02T11:37:32;1.50;;;1.30;;
29500;SDS011;16450;50.288;10.966;2022-08-02T11:40:37;1.55;;;1.40;;
29500;SDS011;16450;50.288;10.966;2022-08-02T11:43:37;1.63;;;1.15;;
29500;SDS011;16450;50.288;10.966;2022-08-02T11:46:39;1.30;;;1.20;;
29500;SDS011;16450;50.288;10.966;2022-08-02T11:49:40;1.30;;;1.20;;
29500;SDS011;16450;50.288;10.966;2022-08-02T11:52:41;3.55;;;1.30;;
29500;SDS011;16450;50.288;10.966;2022-08-02T11:55:43;1.55;;;1.10;;
29500;SDS011;16450;50.288;10.966;2022-08-02T12:02:06;1.77;;;1.10;;
29500;SDS011;16450;50.288;10.966;2022-08-02T12:05:08;1.17;;;1.08;;
29500;SDS011;16450;50.288;10.966;2022-08-02T12:08:14;2.67;;;1.30;;
29500;SDS011;16450;50.288;10.966;2022-08-02T12:11:17;1.20;;;1.10;;
29500;SDS011;16450;50.288;10.966;2022-08-02T12:14:18;1.35;;;1.25;;
29500;SDS011;16450;50.288;10.966;2022-08-02T12:17:26;3.28;;;1.20;;
29500;SDS011;16450;50.288;10.966;2022-08-02T12:20:45;1.13;;;1.02;;
29500;SDS011;16450;50.288;10.966;2022-08-02T12:23:46;1.30;;;1.20;;
29500;SDS011;16450;50.288;10.966;2022-08-02T12:26:46;2.83;;;1.40;;
29500;SDS011;16450;50.288;10.966;2022-08-02T12:29:47;0.90;;;0.90;;
29500;SDS011;16450;50.288;10.966;2022-08-02T12:33:08;1.15;;;1.05;;
29500;SDS011;16450;50.288;10.966;2022-08-02T12:36:18;1.67;;;1.10;;
29500;SDS011;16450;50.288;10.966;2022-08-02T12:42:47;1.13;;;1.08;;
29500;SDS011;16450;50.288;10.966;2022-08-02T12:45:51;1.05;;;1.00;;
29500;SDS011;16450;50.288;10.966;2022-08-02T12:48:53;1.45;;;1.15;;
29500;SDS011;16450;50.288;10.966;2022-08-02T12:51:53;2.45;;;1.10;;
29500;SDS011;16450;50.288;10.966;2022-08-02T12:54:55;1.25;;;1.13;;
29500;SDS011;16450;50.288;10.966;2022-08-02T12:58:00;2.13;;;1.10;;
29500;SDS011;16450;50.288;10.966;2022-08-02T13:01:02;2.15;;;1.20;;
29500;SDS011;16450;50.288;10.966;2022-08-02T13:04:03;1.02;;;0.93;;
29500;SDS011;16450;50.288;10.966;2022-08-02T13:07:05;1.02;;;0.93;;
29500;SDS011;16450;50.288;10.966;2022-08-02T13:10:06;2.05;;;1.20;;
29500;SDS011;16450;50.288;10.966;2022-08-02T13:13:06;1.58;;;1.40;;
29500;SDS011;16450;50.288;10.966;2022-08-02T13:16:08;1.75;;;1.05;;
29500;SDS011;16450;50.288;10.966;2022-08-02T13:19:09;1.10;;;1.00;;
29500;SDS011;16450;50.288;10.966;2022-08-02T13:22:12;1.70;;;1.02;;
29500;SDS011;16450;50.288;10.966;2022-08-02T13:25:12;1.38;;;1.17;;
29500;SDS011;16450;50.288;10.966;2022-08-02T13:28:13;2.63;;;1.20;;
29500;SDS011;16450;50.288;10.966;2022-08-02T13:31:13;1.65;;;1.20;;
29500;SDS011;16450;50.288;10.966;2022-08-02T13:34:14;1.83;;;1.20;;
29500;SDS011;16450;50.288;10.966;2022-08-02T13:37:15;2.20;;;1.08;;
29500;SDS011;16450;50.288;10.966;2022-08-02T13:40:16;0.95;;;0.95;;
29500;SDS011;16450;50.288;10.966;2022-08-02T13:43:16;1.10;;;1.00;;
29500;SDS011;16450;50.288;10.966;2022-08-02T13:46:17;2.08;;;1.10;;
29500;SDS011;16450;50.288;10.966;2022-08-02T13:49:19;1.13;;;1.10;;
29500;SDS011;16450;50.288;10.966;2022-08-02T13:52:19;1.65;;;1.40;;
29500;SDS011;16450;50.288;10.966;2022-08-02T13:55:20;5.07;;;1.30;;
29500;SDS011;16450;50.288;10.966;2022-08-02T13:58:21;1.20;;;1.10;;
29500;SDS011;16450;50.288;10.966;2022-08-02T14:01:21;3.33;;;1.08;;
29500;SDS011;16450;50.288;10.966;2022-08-02T14:04:22;1.20;;;1.10;;
29500;SDS011;16450;50.288;10.966;2022-08-02T14:07:23;3.47;;;1.27;;
29500;SDS011;16450;50.288;10.966;2022-08-02T14:10:24;0.90;;;0.90;;
29500;SDS011;16450;50.288;10.966;2022-08-02T14:13:25;2.53;;;0.80;;
29500;SDS011;16450;50.288;10.966;2022-08-02T14:16:26;1.25;;;0.90;;
29500;SDS011;16450;50.288;10.966;2022-08-02T14:19:26;2.22;;;1.00;;
29500;SDS011;16450;50.288;10.966;2022-08-02T14:22:27;1.20;;;0.98;;
29500;SDS011;16450;50.288;10.966;2022-08-02T14:25:28;2.60;;;0.82;;
29500;SDS011;16450;50.288;10.966;2022-08-02T14:28:29;1.33;;;1.00;;
29500;SDS011;16450;50.288;10.966;2022-08-02T14:31:30;1.20;;;1.10;;
29500;SDS011;16450;50.288;10.966;2022-08-02T14:34:31;1.13;;;1.02;;
29500;SDS011;16450;50.288;10.966;2022-08-02T14:37:31;1.00;;;0.80;;
29500;SDS011;16450;50.288;10.966;2022-08-02T14:40:32;0.73;;;0.70;;
29500;SDS011;16450;50.288;10.966;2022-08-02T14:43:33;0.82;;;0.82;;
29500;SDS011;16450;50.288;10.966;2022-08-02T14:46:52;0.95;;;0.90;;
29500;SDS011;16450;50.288;10.966;2022-08-02T14:49:53;2.08;;;1.00;;
29500;SDS011;16450;50.288;10.966;2022-08-02T14:52:53;0.80;;;0.80;;
29500;SDS011;16450;50.288;10.966;2022-08-02T14:55:54;2.20;;;0.90;;
29500;SDS011;16450;50.288;10.966;2022-08-02T14:58:55;1.77;;;0.80;;
29500;SDS011;16450;50.288;10.966;2022-08-02T15:01:55;1.00;;;0.90;;
29500;SDS011;16450;50.288;10.966;2022-08-02T15:04:57;2.60;;;0.90;;
29500;SDS011;16450;50.288;10.966;2022-08-02T15:07:57;0.90;;;0.75;;
29500;SDS011;16450;50.288;10.966;2022-08-02T15:10:58;0.82;;;0.68;;
29500;SDS011;16450;50.288;10.966;2022-08-02T15:13:59;0.88;;;0.88;;
29500;SDS011;16450;50.288;10.966;2022-08-02T15:16:59;0.73;;;0.70;;
29500;SDS011;16450;50.288;10.966;2022-08-02T15:20:00;1.30;;;0.82;;
29500;SDS011;16450;50.288;10.966;2022-08-02T15:23:01;0.82;;;0.82;;
29500;SDS011;16450;50.288;10.966;2022-08-02T15:26:02;0.77;;;0.77;;
29500;SDS011;16450;50.288;10.966;2022-08-02T15:29:03;0.80;;;0.80;;
29500;SDS011;16450;50.288;10.966;2022-08-02T15:32:04;1.20;;;1.10;;
29500;SDS011;16450;50.288;10.966;2022-08-02T15:35:05;0.70;;;0.70;;
29500;SDS011;16450;50.288;10.966;2022-08-02T15:38:06;0.75;;;0.70;;
29500;SDS011;16450;50.288;10.966;2022-08-02T15:41:07;1.55;;;1.05;;
29500;SDS011;16450;50.288;10.966;2022-08-02T15:44:08;1.42;;;1.00;;
29500;SDS011;16450;50.288;10.966;2022-08-02T15:47:09;0.63;;;0.63;;
29500;SDS011;16450;50.288;10.966;2022-08-02T15:50:10;1.45;;;0.85;;
29500;SDS011;16450;50.288;10.966;2022-08-02T15:53:11;3.22;;;1.15;;
29500;SDS011;16450;50.288;10.966;2022-08-02T15:56:11;1.00;;;0.90;;
29500;SDS011;16450;50.288;10.966;2022-08-02T15:59:12;1.27;;;1.00;;
29500;SDS011;16450;50.288;10.966;2022-08-02T16:02:13;1.08;;;0.82;;
29500;SDS011;16450;50.288;10.966;2022-08-02T16:05:15;1.10;;;0.80;;
29500;SDS011;16450;50.288;10.966;2022-08-02T16:08:16;1.33;;;0.80;;
29500;SDS011;16450;50.288;10.966;2022-08-02T16:11:17;1.48;;;0.90;;
29500;SDS011;16450;50.288;10.966;2022-08-02T16:14:18;1.23;;;1.00;;
29500;SDS011;16450;50.288;10.966;2022-08-02T16:17:18;1.73;;;0.90;;
29500;SDS011;16450;50.288;10.966;2022-08-02T16:20:19;2.13;;;0.90;;
29500;SDS011;16450;50.288;10.966;2022-08-02T16:23:19;1.20;;;0.80;;
29500;SDS011;16450;50.288;10.966;2022-08-02T16:26:20;0.80;;;0.80;;
29500;SDS011;16450;50.288;10.966;2022-08-02T16:29:23;1.27;;;0.88;;
29500;SDS011;16450;50.288;10.966;2022-08-02T16:32:24;0.85;;;0.85;;
29500;SDS011;16450;50.288;10.966;2022-08-02T16:35:25;1.13;;;0.80;;
29500;SDS011;16450;50.288;10.966;2022-08-02T16:38:27;0.75;;;0.75;;
29500;SDS011;16450;50.288;10.966;2022-08-02T16:41:27;0.90;;;0.73;;
29500;SDS011;16450;50.288;10.966;2022-08-02T16:44:28;1.15;;;1.00;;
29500;SDS011;16450;50.288;10.966;2022-08-02T16:47:29;0.90;;;0.90;;
29500;SDS011;16450;50.288;10.966;2022-08-02T16:50:29;0.85;;;0.85;;
29500;SDS011;16450;50.288;10.966;2022-08-02T16:53:30;1.13;;;0.70;;
29500;SDS011;16450;50.288;10.966;2022-08-02T16:56:30;3.65;;;1.00;;
29500;SDS011;16450;50.288;10.966;2022-08-02T16:59:31;1.30;;;0.90;;
29500;SDS011;16450;50.288;10.966;2022-08-02T17:02:35;1.08;;;0.90;;
29500;SDS011;16450;50.288;10.966;2022-08-02T17:05:37;1.05;;;0.73;;
29500;SDS011;16450;50.288;10.966;2022-08-02T17:08:39;0.80;;;0.80;;
29500;SDS011;16450;50.288;10.966;2022-08-02T17:11:40;0.80;;;0.80;;
29500;SDS011;16450;50.288;10.966;2022-08-02T17:14:41;1.17;;;1.05;;
29500;SDS011;16450;50.288;10.966;2022-08-02T17:17:44;1.10;;;1.00;;
29500;SDS011;16450;50.288;10.966;2022-08-02T17:20:45;0.95;;;0.82;;
29500;SDS011;16450;50.288;10.966;2022-08-02T17:23:46;0.70;;;0.70;;
29500;SDS011;16450;50.288;10.966;2022-08-02T17:26:47;1.20;;;1.10;;
29500;SDS011;16450;50.288;10.966;2022-08-02T17:29:47;2.42;;;1.20;;
29500;SDS011;16450;50.288;10.966;2022-08-02T17:32:48;1.02;;;0.90;;
29500;SDS011;16450;50.288;10.966;2022-08-02T17:35:49;1.35;;;1.02;;
29500;SDS011;16450;50.288;10.966;2022-08-02T17:38:50;1.05;;;0.95;;
29500;SDS011;16450;50.288;10.966;2022-08-02T17:41:50;0.93;;;0.88;;
29500;SDS011;16450;50.288;10.966;2022-08-02T17:44:51;1.20;;;0.98;;
29500;SDS011;16450;50.288;10.966;2022-08-02T17:47:53;1.58;;;1.00;;
29500;SDS011;16450;50.288;10.966;2022-08-02T17:50:54;1.50;;;1.10;;
29500;SDS011;16450;50.288;10.966;2022-08-02T17:53:54;1.10;;;1.00;;
29500;SDS011;16450;50.288;10.966;2022-08-02T17:56:55;1.27;;;1.00;;
29500;SDS011;16450;50.288;10.966;2022-08-02T17:59:59;1.13;;;1.02;;
29500;SDS011;16450;50.288;10.966;2022-08-02T18:03:00;2.22;;;0.98;;
29500;SDS011;16450;50.288;10.966;2022-08-02T18:06:02;1.50;;;1.10;;
29500;SDS011;16450;50.288;10.966;2022-08-02T18:09:04;1.63;;;0.90;;
29500;SDS011;16450;50.288;10.966;2022-08-02T18:12:05;1.10;;;0.93;;
29500;SDS011;16450;50.288;10.966;2022-08-02T18:15:05;1.27;;;1.00;;
29500;SDS011;16450;50.288;10.966;2022-08-02T18:18:06;2.08;;;1.17;;
29500;SDS011;16450;50.288;10.966;2022-08-02T18:21:07;1.55;;;1.40;;
29500;SDS011;16450;50.288;10.966;2022-08-02T18:24:10;1.60;;;1.30;;
29500;SDS011;16450;50.288;10.966;2022-08-02T18:27:11;3.58;;;1.27;;
29500;SDS011;16450;50.288;10.966;2022-08-02T18:30:12;1.20;;;1.00;;
29500;SDS011;16450;50.288;10.966;2022-08-02T18:33:12;1.45;;;1.20;;